createdAt,value
2022-10-08T00:01:07.091Z,21.70
2022-10-08T00:03:37.725Z,15.48
2022-10-08T00:06:12.427Z,15.75
2022-10-08T00:08:41.675Z,17.63
2022-10-08T00:11:11.183Z,14.55
2022-10-08T00:13:40.992Z,11.65
2022-10-08T00:16:12.660Z,7.90
2022-10-08T00:18:44.858Z,14.88
2022-10-08T00:23:44.709Z,13.35
2022-10-08T00:26:11.506Z,7.15
2022-10-08T00:28:41.966Z,6.47
2022-10-08T00:31:11.483Z,7.65
2022-10-08T00:33:38.561Z,7.10
2022-10-08T00:36:08.160Z,14.00
2022-10-08T00:38:35.859Z,6.85
2022-10-08T00:41:05.618Z,8.15
2022-10-08T00:43:45.501Z,7.85
2022-10-08T00:46:25.315Z,8.80
2022-10-08T00:49:11.580Z,8.73
2022-10-08T00:51:44.103Z,12.02
2022-10-08T00:54:12.986Z,15.18
2022-10-08T00:56:41.295Z,21.35
2022-10-08T00:59:10.979Z,11.27
2022-10-08T01:01:41.191Z,10.40
2022-10-08T01:04:09.333Z,9.65
2022-10-08T01:06:42.630Z,9.52
2022-10-08T01:09:19.100Z,12.20
2022-10-08T01:12:18.605Z,9.07
2022-10-08T01:15:01.762Z,10.32
2022-10-08T01:17:37.498Z,15.13
2022-10-08T01:20:13.283Z,10.85
2022-10-08T01:22:52.348Z,7.50
2022-10-08T01:25:35.527Z,8.10
2022-10-08T01:28:19.792Z,7.82
2022-10-08T01:30:59.578Z,7.55
2022-10-08T01:33:35.723Z,5.35
2022-10-08T01:36:05.164Z,8.38
2022-10-08T01:38:35.744Z,5.10
2022-10-08T01:41:08.235Z,4.75
2022-10-08T01:43:40.436Z,7.30
2022-10-08T01:46:22.381Z,14.52
2022-10-08T01:48:51.998Z,5.78
2022-10-08T01:51:27.339Z,12.60
2022-10-08T01:53:55.309Z,5.15
2022-10-08T01:56:27.047Z,7.10
2022-10-08T01:59:03.737Z,5.78
2022-10-08T02:02:01.467Z,8.15
2022-10-08T02:04:33.840Z,8.82
2022-10-08T02:07:15.348Z,7.18
2022-10-08T02:09:48.037Z,5.32
2022-10-08T02:12:14.938Z,6.20
2022-10-08T02:14:47.104Z,7.18
2022-10-08T02:17:33.046Z,5.47
2022-10-08T02:20:02.833Z,7.22
2022-10-08T02:22:45.601Z,12.57
2022-10-08T02:28:28.326Z,8.40
2022-10-08T02:31:04.908Z,10.57
2022-10-08T02:33:37.889Z,9.45
2022-10-08T02:36:08.172Z,10.27
2022-10-08T02:38:41.261Z,9.55
2022-10-08T02:41:11.385Z,15.23
2022-10-08T02:43:45.227Z,17.85
2022-10-08T02:46:17.736Z,15.05
2022-10-08T02:48:51.087Z,11.57
2022-10-08T02:51:18.772Z,13.52
2022-10-08T02:53:47.576Z,19.95
2022-10-08T02:56:37.724Z,15.45
2022-10-08T02:59:05.592Z,13.98
2022-10-08T03:01:48.808Z,12.52
2022-10-08T03:04:26.039Z,8.38
2022-10-08T03:06:54.157Z,11.77
2022-10-08T03:09:22.781Z,18.15
2022-10-08T03:11:50.327Z,14.65
2022-10-08T03:14:20.297Z,21.35
2022-10-08T03:16:48.174Z,13.98
2022-10-08T03:19:16.722Z,16.20
2022-10-08T03:21:45.534Z,14.07
2022-10-08T03:24:14.521Z,13.75
2022-10-08T03:26:41.715Z,19.52
2022-10-08T03:29:09.171Z,14.27
2022-10-08T03:31:36.250Z,15.60
2022-10-08T03:34:02.992Z,16.70
2022-10-08T03:36:30.433Z,15.20
2022-10-08T03:38:57.472Z,15.00
2022-10-08T03:41:25.503Z,19.98
2022-10-08T03:43:52.337Z,15.80
2022-10-08T03:46:19.340Z,15.82
2022-10-08T03:48:49.683Z,17.67
2022-10-08T03:51:18.374Z,19.52
2022-10-08T03:53:45.912Z,13.70
2022-10-08T03:56:15.465Z,17.02
2022-10-08T03:58:43.021Z,15.85
2022-10-08T04:01:17.791Z,20.20
2022-10-08T04:03:45.451Z,17.35
2022-10-08T04:06:12.696Z,21.05
2022-10-08T04:08:40.092Z,21.40
2022-10-08T04:11:10.110Z,15.43
2022-10-08T04:13:38.125Z,14.07
2022-10-08T04:16:10.856Z,12.30
2022-10-08T04:18:38.034Z,14.52
2022-10-08T04:21:08.491Z,13.35
2022-10-08T04:23:37.912Z,16.40
2022-10-08T04:26:05.329Z,18.48
2022-10-08T04:28:37.547Z,17.38
2022-10-08T04:31:08.625Z,18.23
2022-10-08T04:33:36.437Z,14.88
2022-10-08T04:36:12.063Z,15.52
2022-10-08T04:38:39.331Z,14.55
2022-10-08T04:41:06.797Z,19.70
2022-10-08T04:43:35.335Z,13.32
2022-10-08T04:46:03.183Z,14.63
2022-10-08T04:48:30.362Z,18.90
2022-10-08T04:50:59.172Z,13.70
2022-10-08T04:53:26.965Z,14.95
2022-10-08T04:55:55.167Z,17.77
2022-10-08T04:58:23.339Z,14.70
2022-10-08T05:00:50.727Z,16.40
2022-10-08T05:03:17.801Z,12.35
2022-10-08T05:05:46.459Z,15.77
2022-10-08T05:08:13.871Z,20.85
2022-10-08T05:10:48.366Z,13.90
2022-10-08T05:13:15.389Z,15.02
2022-10-08T05:15:42.458Z,11.45
2022-10-08T05:18:10.289Z,16.08
2022-10-08T05:20:38.040Z,14.05
2022-10-08T05:23:05.115Z,14.25
2022-10-08T05:25:33.482Z,13.82
2022-10-08T05:28:01.573Z,15.95
2022-10-08T05:30:28.425Z,20.85
2022-10-08T05:32:55.433Z,15.63
2022-10-08T05:35:22.447Z,17.33
2022-10-08T05:37:49.279Z,16.33
2022-10-08T05:40:16.336Z,12.57
2022-10-08T05:42:43.427Z,13.70
2022-10-08T05:45:10.875Z,12.13
2022-10-08T05:47:38.270Z,12.68
2022-10-08T05:50:06.026Z,14.77
2022-10-08T05:52:33.021Z,11.43
2022-10-08T05:55:00.453Z,13.20
2022-10-08T05:57:28.146Z,16.73
2022-10-08T05:59:55.060Z,12.30
2022-10-08T06:02:22.318Z,14.43
2022-10-08T06:04:50.391Z,15.90
2022-10-08T06:07:17.318Z,15.82
2022-10-08T06:09:45.253Z,13.88
2022-10-08T06:12:13.914Z,18.38
2022-10-08T06:14:41.187Z,16.50
2022-10-08T06:17:08.034Z,14.82
2022-10-08T06:19:37.336Z,10.85
2022-10-08T06:22:05.125Z,11.93
2022-10-08T06:24:32.476Z,13.18
2022-10-08T06:26:59.547Z,13.05
2022-10-08T06:29:26.802Z,13.88
2022-10-08T06:31:53.821Z,17.38
2022-10-08T06:34:22.011Z,13.52
2022-10-08T06:36:50.215Z,15.10
2022-10-08T06:39:18.452Z,10.68
2022-10-08T06:41:45.510Z,11.88
2022-10-08T06:44:14.566Z,17.27
2022-10-08T06:46:42.459Z,13.13
2022-10-08T06:49:10.435Z,12.32
2022-10-08T06:51:38.350Z,14.18
2022-10-08T06:54:08.299Z,12.30
2022-10-08T06:56:37.500Z,12.63
2022-10-08T06:59:06.598Z,12.90
2022-10-08T07:01:35.806Z,17.85
2022-10-08T07:04:05.120Z,19.38
2022-10-08T07:06:36.509Z,20.48
2022-10-08T07:09:04.923Z,12.55
2022-10-08T07:11:33.668Z,14.05
2022-10-08T07:14:00.987Z,15.18
2022-10-08T07:16:28.576Z,12.88
2022-10-08T07:18:58.084Z,13.48
2022-10-08T07:21:25.635Z,15.02
2022-10-08T07:23:52.953Z,15.13
2022-10-08T07:26:25.263Z,9.73
2022-10-08T07:28:55.346Z,12.98
2022-10-08T07:31:27.117Z,11.43
2022-10-08T07:33:54.273Z,15.07
2022-10-08T07:36:23.265Z,10.55
2022-10-08T07:39:03.860Z,13.93
2022-10-08T07:41:32.024Z,12.23
2022-10-08T07:44:00.841Z,11.98
2022-10-08T07:46:29.545Z,10.60
2022-10-08T07:48:59.211Z,14.48
2022-10-08T07:51:28.038Z,13.25
2022-10-08T07:54:00.240Z,12.70
2022-10-08T07:56:30.319Z,14.40
2022-10-08T07:58:58.857Z,16.60
2022-10-08T08:01:28.533Z,11.30
2022-10-08T08:04:07.306Z,13.07
2022-10-08T08:06:41.608Z,10.05
2022-10-08T08:09:09.163Z,14.98
2022-10-08T08:11:36.523Z,14.50
2022-10-08T08:14:03.826Z,10.93
2022-10-08T08:16:30.759Z,10.93
2022-10-08T08:19:01.301Z,18.35
2022-10-08T08:21:36.386Z,16.38
2022-10-08T08:24:06.218Z,10.60
2022-10-08T08:26:36.037Z,9.93
2022-10-08T08:29:08.887Z,12.57
2022-10-08T08:31:39.400Z,7.47
2022-10-08T08:34:12.807Z,16.48
2022-10-08T08:36:43.913Z,9.57
2022-10-08T08:39:19.758Z,10.70
2022-10-08T08:41:52.948Z,15.60
2022-10-08T08:44:39.254Z,15.25
2022-10-08T08:47:08.308Z,11.48
2022-10-08T08:49:49.821Z,21.50
2022-10-08T08:52:19.432Z,10.57
2022-10-08T08:54:49.562Z,7.65
2022-10-08T08:57:30.231Z,10.25
2022-10-08T09:00:03.751Z,9.07
2022-10-08T09:02:51.562Z,12.48
2022-10-08T09:05:20.204Z,12.65
2022-10-08T09:07:56.684Z,8.05
2022-10-08T09:10:39.209Z,10.75
2022-10-08T09:13:14.368Z,9.55
2022-10-08T09:15:43.005Z,8.18
2022-10-08T09:18:13.101Z,12.57
2022-10-08T09:20:40.788Z,5.68
2022-10-08T09:23:15.320Z,9.38
2022-10-08T09:25:44.540Z,6.85
2022-10-08T09:28:11.570Z,12.18
2022-10-08T09:30:41.468Z,7.45
2022-10-08T09:33:16.329Z,7.65
2022-10-08T09:35:44.963Z,8.07
2022-10-08T09:38:27.006Z,8.77
2022-10-08T09:41:20.349Z,7.68
2022-10-08T09:44:15.867Z,4.82
2022-10-08T09:46:43.198Z,11.40
2022-10-08T09:49:32.468Z,14.32
2022-10-08T09:52:05.857Z,5.22
2022-10-08T09:55:22.570Z,4.80
2022-10-08T09:58:00.475Z,5.50
2022-10-08T10:00:35.351Z,4.20
2022-10-08T10:03:05.646Z,5.80
2022-10-08T10:05:35.015Z,7.38
2022-10-08T10:08:02.362Z,5.70
2022-10-08T10:10:40.451Z,4.47
2022-10-08T10:13:27.964Z,4.43
2022-10-08T10:16:40.197Z,3.50
2022-10-08T10:19:15.736Z,3.75
2022-10-08T10:22:04.873Z,4.57
2022-10-08T10:24:50.293Z,9.88
2022-10-08T10:27:40.544Z,4.13
2022-10-08T10:30:17.136Z,4.38
2022-10-08T10:32:56.139Z,5.15
2022-10-08T10:35:28.427Z,3.47
2022-10-08T10:38:09.486Z,4.10
2022-10-08T10:40:42.455Z,5.35
2022-10-08T10:43:52.981Z,6.28
2022-10-08T10:46:25.254Z,3.45
2022-10-08T10:48:52.253Z,4.13
2022-10-08T10:51:50.553Z,3.10
2022-10-08T10:54:23.008Z,3.80
2022-10-08T10:56:56.969Z,3.90
2022-10-08T11:00:03.647Z,9.77
2022-10-08T11:02:42.177Z,5.70
2022-10-08T11:05:33.139Z,7.40
2022-10-08T11:08:30.557Z,4.57
2022-10-08T11:11:09.664Z,12.20
2022-10-08T11:13:55.260Z,24.65
2022-10-08T11:16:37.556Z,8.25
2022-10-08T11:19:11.635Z,16.27
2022-10-08T11:21:48.091Z,34.90
2022-10-08T11:24:23.956Z,21.80
2022-10-08T11:27:12.804Z,30.50
2022-10-08T11:29:52.231Z,16.38
2022-10-08T11:32:20.479Z,23.67
2022-10-08T11:35:00.950Z,27.73
2022-10-08T11:37:27.791Z,19.77
2022-10-08T11:40:10.550Z,10.23
2022-10-08T11:42:48.512Z,17.98
2022-10-08T11:45:25.819Z,19.65
2022-10-08T11:47:54.902Z,17.35
2022-10-08T11:50:32.245Z,7.75
2022-10-08T11:53:21.026Z,9.80
2022-10-08T11:55:57.163Z,12.30
2022-10-08T11:58:32.647Z,11.13
2022-10-08T12:01:07.891Z,9.10
2022-10-08T12:03:41.043Z,12.63
2022-10-08T12:06:35.891Z,6.05
2022-10-08T12:09:07.758Z,14.57
2022-10-08T12:11:43.392Z,6.13
2022-10-08T12:14:14.431Z,6.38
2022-10-08T12:16:47.593Z,10.55
2022-10-08T12:19:33.087Z,6.65
2022-10-08T12:22:02.065Z,4.07
2022-10-08T12:24:38.238Z,4.20
2022-10-08T12:27:17.762Z,8.25
2022-10-08T12:30:12.112Z,12.13
2022-10-08T12:32:42.273Z,16.08
2022-10-08T12:35:35.922Z,9.65
2022-10-08T12:38:13.775Z,5.22
2022-10-08T12:40:56.941Z,12.50
2022-10-08T12:43:51.635Z,14.82
2022-10-08T12:46:40.009Z,9.23
2022-10-08T12:49:25.169Z,7.40
2022-10-08T12:52:04.566Z,13.63
2022-10-08T12:54:32.985Z,6.35
2022-10-08T12:57:07.176Z,13.63
2022-10-08T12:59:34.235Z,8.32
2022-10-08T13:02:01.439Z,6.85
2022-10-08T13:04:33.990Z,4.97
2022-10-08T13:07:19.231Z,9.18
2022-10-08T13:09:46.225Z,8.00
2022-10-08T13:12:13.077Z,11.93
2022-10-08T13:14:40.462Z,5.18
2022-10-08T13:17:30.292Z,6.65
2022-10-08T13:20:17.019Z,10.63
2022-10-08T13:22:44.827Z,11.18
2022-10-08T13:25:35.269Z,12.85
2022-10-08T13:28:16.131Z,5.53
2022-10-08T13:30:46.953Z,11.45
2022-10-08T13:33:20.670Z,13.85
2022-10-08T13:35:52.333Z,10.65
2022-10-08T13:38:27.088Z,6.75
2022-10-08T13:40:58.762Z,8.02
2022-10-08T13:43:26.439Z,7.70
2022-10-08T13:45:53.385Z,9.38
2022-10-08T13:48:20.434Z,10.55
2022-10-08T13:50:50.282Z,19.90
2022-10-08T13:53:22.182Z,33.22
2022-10-08T13:55:50.463Z,11.45
2022-10-08T13:58:19.825Z,5.65
2022-10-08T14:00:47.892Z,6.57
2022-10-08T14:03:15.135Z,8.45
2022-10-08T14:05:45.423Z,10.48
2022-10-08T14:08:28.273Z,10.80
2022-10-08T14:10:58.307Z,12.15
2022-10-08T14:13:25.692Z,9.98
2022-10-08T14:15:52.741Z,6.65
2022-10-08T14:18:19.716Z,11.55
2022-10-08T14:20:50.632Z,16.90
2022-10-08T14:23:17.607Z,19.45
2022-10-08T14:25:44.490Z,20.60
2022-10-08T14:28:11.331Z,21.00
2022-10-08T14:30:38.121Z,19.38
2022-10-08T14:33:10.277Z,9.35
2022-10-08T14:35:38.188Z,12.07
2022-10-08T14:38:05.045Z,4.63
2022-10-08T14:40:31.969Z,7.88
2022-10-08T14:42:58.859Z,11.60
2022-10-08T14:45:26.025Z,8.77
2022-10-08T14:47:52.846Z,8.57
2022-10-08T14:50:19.778Z,15.38
2022-10-08T14:52:47.283Z,19.92
2022-10-08T14:55:14.854Z,16.75
2022-10-08T14:57:41.818Z,16.92
2022-10-08T15:00:09.197Z,17.48
2022-10-08T15:02:36.304Z,25.35
2022-10-08T15:05:03.319Z,62.03
2022-10-08T15:07:30.876Z,76.35
2022-10-08T15:09:57.934Z,43.90
2022-10-08T15:12:25.077Z,28.17
2022-10-08T15:14:51.883Z,20.63
2022-10-08T15:17:18.678Z,16.85
2022-10-08T15:19:45.628Z,16.50
2022-10-08T15:22:12.869Z,18.25
2022-10-08T15:24:39.814Z,26.65
2022-10-08T15:27:06.756Z,18.92
2022-10-08T15:29:33.561Z,19.67
2022-10-08T15:32:00.457Z,22.45
2022-10-08T15:34:27.437Z,22.85
2022-10-08T15:36:56.032Z,24.10
2022-10-08T15:39:22.993Z,27.98
2022-10-08T15:41:54.446Z,21.50
2022-10-08T15:47:02.566Z,40.35
2022-10-08T15:49:31.299Z,37.78
2022-10-08T15:51:58.640Z,40.30
2022-10-08T15:54:25.859Z,40.17
2022-10-08T15:56:52.685Z,39.53
2022-10-08T15:59:19.683Z,39.75
2022-10-08T16:01:46.539Z,36.10
2022-10-08T16:04:14.395Z,37.00
2022-10-08T16:06:47.797Z,39.55
2022-10-08T16:09:16.707Z,29.50
2022-10-08T16:11:44.482Z,38.58
2022-10-08T16:14:14.431Z,46.53
2022-10-08T16:16:42.551Z,49.70
2022-10-08T16:19:18.368Z,25.85
2022-10-08T16:21:47.435Z,21.30
2022-10-08T16:24:15.361Z,27.67
2022-10-08T16:26:43.586Z,38.30
2022-10-08T16:29:13.017Z,35.67
2022-10-08T16:31:41.720Z,47.22
2022-10-08T16:34:13.721Z,48.65
2022-10-08T16:36:40.975Z,40.22
2022-10-08T16:39:10.063Z,36.88
2022-10-08T16:41:38.014Z,55.58
2022-10-08T16:44:12.675Z,47.20
2022-10-08T16:46:42.632Z,35.00
2022-10-08T16:49:28.176Z,43.92
2022-10-08T16:52:05.544Z,50.65
2022-10-08T16:54:33.253Z,47.95
2022-10-08T16:57:00.870Z,43.25
2022-10-08T16:59:29.843Z,41.42
2022-10-08T17:01:59.684Z,45.25
2022-10-08T17:04:29.403Z,50.72
2022-10-08T17:06:56.816Z,48.92
2022-10-08T17:09:23.742Z,36.92
2022-10-08T17:11:50.725Z,28.20
2022-10-08T17:14:17.541Z,35.63
2022-10-08T17:16:48.966Z,36.05
2022-10-08T17:19:18.026Z,38.55
2022-10-08T17:21:45.161Z,30.77
2022-10-08T17:24:12.764Z,41.42
2022-10-08T17:26:40.332Z,38.60
2022-10-08T17:29:10.243Z,169.80
2022-10-08T17:31:38.151Z,487.10
2022-10-08T17:34:06.336Z,313.05
2022-10-08T17:36:36.331Z,157.75
2022-10-08T17:39:05.824Z,121.88
2022-10-08T17:41:37.953Z,138.05
2022-10-08T17:44:07.279Z,111.38
2022-10-08T17:46:39.932Z,98.28
2022-10-08T17:49:06.915Z,92.80
2022-10-08T17:51:34.435Z,88.32
2022-10-08T17:54:04.167Z,140.43
2022-10-08T17:56:31.636Z,127.50
2022-10-08T17:58:58.960Z,90.22
2022-10-08T18:01:29.918Z,61.40
2022-10-08T18:04:03.051Z,381.40
2022-10-08T18:06:31.290Z,284.88
2022-10-08T18:09:01.124Z,259.10
2022-10-08T18:11:30.677Z,183.23
2022-10-08T18:13:58.189Z,127.80
2022-10-08T18:16:28.064Z,122.30
2022-10-08T18:18:55.340Z,126.57
2022-10-08T18:21:22.565Z,121.50
2022-10-08T18:23:49.951Z,120.47
2022-10-08T18:26:20.932Z,119.70
2022-10-08T18:28:56.462Z,111.95
2022-10-08T18:31:26.907Z,114.93
2022-10-08T18:34:00.199Z,110.88
2022-10-08T18:36:30.260Z,96.40
2022-10-08T18:39:03.230Z,114.28
2022-10-08T18:41:32.927Z,104.65
2022-10-08T18:44:00.737Z,104.13
2022-10-08T18:46:28.537Z,116.43
2022-10-08T18:48:55.974Z,108.03
2022-10-08T18:51:25.827Z,118.47
2022-10-08T18:53:55.050Z,113.55
2022-10-08T18:56:28.733Z,106.45
2022-10-08T18:59:01.755Z,115.32
2022-10-08T19:01:34.665Z,117.45
2022-10-08T19:04:04.418Z,130.63
2022-10-08T19:06:35.013Z,129.25
2022-10-08T19:09:03.282Z,126.85
2022-10-08T19:11:33.735Z,132.98
2022-10-08T19:14:01.686Z,134.73
2022-10-08T19:16:29.141Z,138.57
2022-10-08T19:18:57.179Z,133.05
2022-10-08T19:21:26.463Z,136.85
2022-10-08T19:23:54.152Z,141.90
2022-10-08T19:26:21.017Z,136.65
2022-10-08T19:28:50.969Z,138.57
2022-10-08T19:31:19.413Z,143.80
2022-10-08T19:33:58.147Z,145.90
2022-10-08T19:36:27.204Z,135.43
2022-10-08T19:38:59.364Z,133.60
2022-10-08T19:41:27.681Z,131.00
2022-10-08T19:43:56.448Z,124.35
2022-10-08T19:46:24.434Z,112.13
2022-10-08T19:48:56.501Z,122.78
2022-10-08T19:51:24.792Z,120.28
2022-10-08T19:53:52.288Z,116.65
2022-10-08T19:56:20.632Z,112.70
2022-10-08T19:58:49.690Z,113.68
2022-10-08T20:01:20.324Z,114.85
2022-10-08T20:03:47.669Z,100.30
2022-10-08T20:06:21.700Z,91.50
2022-10-08T20:08:50.283Z,108.82
2022-10-08T20:11:19.226Z,110.30
2022-10-08T20:13:48.039Z,104.43
2022-10-08T20:16:18.081Z,106.07
2022-10-08T20:18:53.365Z,105.65
2022-10-08T20:21:21.480Z,99.82
2022-10-08T20:23:48.715Z,100.63
2022-10-08T20:26:23.127Z,100.53
2022-10-08T20:28:53.118Z,78.53
2022-10-08T20:31:27.184Z,74.65
2022-10-08T20:33:59.027Z,66.43
2022-10-08T20:38:53.722Z,60.33
2022-10-08T20:41:23.487Z,63.15
2022-10-08T20:43:55.933Z,49.03
2022-10-08T20:46:23.015Z,50.45
2022-10-08T20:48:49.877Z,54.95
2022-10-08T20:51:20.033Z,51.38
2022-10-08T20:53:55.409Z,59.15
2022-10-08T20:56:22.635Z,51.58
2022-10-08T20:58:49.775Z,52.55
2022-10-08T21:01:24.779Z,52.22
2022-10-08T21:03:52.791Z,54.95
2022-10-08T21:06:22.437Z,53.72
2022-10-08T21:08:51.396Z,55.15
2022-10-08T21:11:21.005Z,51.55
2022-10-08T21:13:48.507Z,65.57
2022-10-08T21:16:18.080Z,60.35
2022-10-08T21:18:49.495Z,66.38
2022-10-08T21:21:16.922Z,58.45
2022-10-08T21:23:45.206Z,62.95
2022-10-08T21:26:15.095Z,67.00
2022-10-08T21:28:44.170Z,66.10
2022-10-08T21:31:11.915Z,64.13
2022-10-08T21:33:40.742Z,71.30
2022-10-08T21:36:11.993Z,71.22
2022-10-08T21:38:38.858Z,65.88
2022-10-08T21:41:12.530Z,59.58
2022-10-08T21:43:40.920Z,52.10
2022-10-08T21:46:10.397Z,45.55
2022-10-08T21:48:38.255Z,30.33
2022-10-08T21:51:08.426Z,35.28
2022-10-08T21:53:37.514Z,39.47
2022-10-08T21:56:10.672Z,51.00
2022-10-08T21:58:39.904Z,41.78
2022-10-08T22:01:08.630Z,28.08
2022-10-08T22:03:35.491Z,30.58
2022-10-08T22:06:04.638Z,21.42
2022-10-08T22:08:31.838Z,29.60
2022-10-08T22:10:58.829Z,26.83
2022-10-08T22:13:25.783Z,25.80
2022-10-08T22:15:57.123Z,21.42
2022-10-08T22:18:25.326Z,23.58
2022-10-08T22:20:52.959Z,21.48
2022-10-08T22:23:20.635Z,21.45
2022-10-08T22:26:01.522Z,20.63
2022-10-08T22:28:29.018Z,26.40
2022-10-08T22:30:58.799Z,33.35
2022-10-08T22:33:25.960Z,24.58
2022-10-08T22:35:52.909Z,33.00
2022-10-08T22:38:19.728Z,27.05
2022-10-08T22:40:46.583Z,29.33
2022-10-08T22:43:13.390Z,21.38
2022-10-08T22:45:41.560Z,21.40
2022-10-08T22:48:08.500Z,24.15
2022-10-08T22:50:36.099Z,21.35
2022-10-08T22:53:02.872Z,20.20
2022-10-08T22:55:29.781Z,20.13
2022-10-08T22:57:56.738Z,24.52
2022-10-08T23:00:23.655Z,29.42
2022-10-08T23:02:50.817Z,27.75
2022-10-08T23:05:17.854Z,33.70
2022-10-08T23:07:44.675Z,24.45
2022-10-08T23:10:11.496Z,26.42
2022-10-08T23:12:38.295Z,29.02
2022-10-08T23:15:05.524Z,31.40
2022-10-08T23:17:32.418Z,30.55
2022-10-08T23:19:59.277Z,29.58
2022-10-08T23:22:26.190Z,31.40
2022-10-08T23:24:53.078Z,36.53
2022-10-08T23:27:20.305Z,34.30
2022-10-08T23:29:47.310Z,26.52
2022-10-08T23:32:14.133Z,27.25
2022-10-08T23:34:41.029Z,33.08
2022-10-08T23:37:07.874Z,24.88
2022-10-08T23:39:34.730Z,22.17
2022-10-08T23:42:01.512Z,21.85
2022-10-08T23:44:28.327Z,19.90
2022-10-08T23:46:55.136Z,17.55
2022-10-08T23:49:21.873Z,24.17
2022-10-08T23:51:48.818Z,19.83
2022-10-08T23:54:15.597Z,20.63
2022-10-08T23:56:42.461Z,31.15
2022-10-08T23:59:09.505Z,16.08
